Time;durP1;ratioP1;P1;durP2;ratioP2;P2;SDS_P1;SDS_P2;PMS_P1;PMS_P2;Temp;Humidity;BMP_temperature;BMP_pressure;BME280_temperature;BME280_humidity;BME280_pressure;Samples;Min_cycle;Max_cycle;Signal;HPM_P1;HPM_P2
2023/10/13 00:00:29;;;;;;;49.90;18.02;;;13.90;99.90;;;;;;5094795;28;20039;-92
2023/10/13 00:03:00;;;;;;;39.90;17.83;;;13.90;99.90;;;;;;5108474;28;20043;-89
2023/10/13 00:05:30;;;;;;;52.13;18.73;;;13.90;99.90;;;;;;5094352;28;20046;-89
2023/10/13 00:08:02;;;;;;;39.92;17.98;;;14.00;99.90;;;;;;5109981;28;20039;-90
2023/10/13 00:10:30;;;;;;;42.25;18.40;;;13.90;99.90;;;;;;5105305;28;20127;-90
2023/10/13 00:13:11;;;;;;;55.28;20.02;;;14.00;99.90;;;;;;5094340;28;20039;-89
2023/10/13 00:15:56;;;;;;;48.20;19.67;;;14.00;99.90;;;;;;5094283;28;20056;-90
2023/10/13 00:18:34;;;;;;;47.50;19.00;;;14.00;99.90;;;;;;5106345;28;20130;-90
2023/10/13 00:21:12;;;;;;;50.13;20.25;;;14.10;99.90;;;;;;5123911;28;20497;-90
2023/10/13 00:23:53;;;;;;;44.53;19.23;;;13.90;99.90;;;;;;5107892;28;20485;-90
2023/10/13 00:26:27;;;;;;;57.63;19.60;;;14.10;99.90;;;;;;5094209;28;20379;-90
2023/10/13 00:31:55;;;;;;;52.15;21.27;;;14.10;99.90;;;;;;5059254;28;20040;-90
2023/10/13 00:34:27;;;;;;;43.35;19.27;;;14.20;99.90;;;;;;5094280;28;20119;-89
2023/10/13 00:37:16;;;;;;;61.40;20.77;;;14.20;99.90;;;;;;5107564;28;20035;-90
2023/10/13 00:39:45;;;;;;;50.03;20.75;;;14.20;99.90;;;;;;5107592;28;20050;-90
2023/10/13 00:42:19;;;;;;;53.50;20.85;;;14.30;99.90;;;;;;5094083;28;20036;-90
2023/10/13 00:44:49;;;;;;;42.90;20.88;;;14.30;99.90;;;;;;5094088;28;20036;-90
2023/10/13 00:47:37;;;;;;;60.90;20.58;;;14.30;99.90;;;;;;5111059;28;20048;-90
2023/10/13 00:50:05;;;;;;;42.53;19.05;;;14.40;99.90;;;;;;5093747;28;20080;-90
2023/10/13 00:52:35;;;;;;;48.10;20.45;;;14.40;99.90;;;;;;5096311;28;20044;-90
2023/10/13 00:55:04;;;;;;;47.70;20.42;;;14.40;99.90;;;;;;5104591;28;20740;-90
2023/10/13 00:57:31;;;;;;;39.22;18.30;;;14.40;99.90;;;;;;5094001;28;20036;-90
2023/10/13 00:59:59;;;;;;;40.65;19.27;;;14.50;99.90;;;;;;5094104;28;20548;-90
2023/10/13 01:02:37;;;;;;;38.17;19.38;;;14.50;99.90;;;;;;5094010;28;20074;-90
2023/10/13 01:05:09;;;;;;;46.97;19.00;;;14.50;99.90;;;;;;5098374;28;20050;-90
2023/10/13 01:07:39;;;;;;;36.35;18.90;;;14.60;99.90;;;;;;5102664;28;20044;-90
2023/10/13 01:10:14;;;;;;;38.08;19.02;;;14.50;99.90;;;;;;5094028;28;20061;-90
2023/10/13 01:12:45;;;;;;;41.03;19.05;;;14.60;99.90;;;;;;5113166;28;20131;-90
2023/10/13 01:15:16;;;;;;;41.75;19.45;;;14.60;99.90;;;;;;5102431;28;20502;-90
2023/10/13 01:17:45;;;;;;;34.47;18.90;;;14.70;99.90;;;;;;5097763;28;20051;-90
2023/10/13 01:20:52;;;;;;;39.45;18.73;;;14.70;99.90;;;;;;5094222;28;20444;-90
2023/10/13 01:23:18;;;;;;;38.30;19.42;;;14.80;99.90;;;;;;5118235;28;20051;-90
2023/10/13 01:25:45;;;;;;;37.65;19.60;;;14.80;99.90;;;;;;5094171;28;20456;-90
2023/10/13 01:28:18;;;;;;;41.95;18.80;;;14.80;99.90;;;;;;5107701;28;20056;-90
2023/10/13 01:30:52;;;;;;;36.38;19.48;;;14.80;99.90;;;;;;5117374;28;20146;-90
2023/10/13 01:33:28;;;;;;;43.53;19.67;;;14.80;99.90;;;;;;5101198;28;20082;-90
2023/10/13 01:35:58;;;;;;;46.20;19.55;;;14.90;99.90;;;;;;5097675;28;20047;-90
2023/10/13 01:38:28;;;;;;;39.13;19.85;;;14.90;99.90;;;;;;5097383;28;20040;-90
2023/10/13 01:40:56;;;;;;;37.50;18.95;;;14.90;99.90;;;;;;5109353;28;20071;-90
2023/10/13 01:43:23;;;;;;;35.83;19.08;;;15.00;99.90;;;;;;5111086;28;20491;-90
2023/10/13 01:45:50;;;;;;;36.25;18.45;;;15.10;99.90;;;;;;5097954;28;20043;-90
2023/10/13 01:48:18;;;;;;;38.58;19.38;;;15.10;99.90;;;;;;5103604;28;20489;-90
2023/10/13 01:50:55;;;;;;;34.55;18.45;;;15.20;99.90;;;;;;5116890;28;20044;-91
2023/10/13 01:53:22;;;;;;;40.22;18.45;;;15.20;99.90;;;;;;5098989;28;20044;-90
2023/10/13 01:55:50;;;;;;;40.10;18.48;;;15.30;99.90;;;;;;5097297;28;20482;-90
2023/10/13 01:58:17;;;;;;;40.42;17.30;;;15.60;99.90;;;;;;5106596;28;20136;-90
2023/10/13 02:00:47;;;;;;;35.13;17.35;;;15.30;99.90;;;;;;5100931;28;20040;-91
2023/10/13 02:03:16;;;;;;;37.22;17.55;;;15.30;99.90;;;;;;5110405;28;20055;-90
2023/10/13 02:05:47;;;;;;;35.83;17.63;;;15.40;99.90;;;;;;5096998;28;20104;-90
2023/10/13 02:08:22;;;;;;;34.92;16.60;;;15.40;99.90;;;;;;5096725;28;20044;-90
2023/10/13 02:10:54;;;;;;;29.83;15.05;;;15.50;99.90;;;;;;5097039;28;20097;-91
2023/10/13 02:13:24;;;;;;;30.30;15.68;;;15.50;99.90;;;;;;5097207;28;20038;-91
2023/10/13 02:15:56;;;;;;;32.25;15.50;;;15.50;99.90;;;;;;5101237;28;20397;-91
2023/10/13 02:18:27;;;;;;;28.90;15.23;;;15.50;99.90;;;;;;5104550;28;20036;-91
2023/10/13 02:20:55;;;;;;;28.05;14.35;;;15.70;99.90;;;;;;5096355;28;20097;-91
2023/10/13 02:23:24;;;;;;;25.98;14.52;;;15.60;99.90;;;;;;5109791;28;20081;-91
2023/10/13 02:26:00;;;;;;;26.65;14.52;;;15.60;99.90;;;;;;5100336;28;20436;-90
2023/10/13 02:28:30;;;;;;;27.00;14.00;;;15.50;99.90;;;;;;5096458;28;20540;-91
2023/10/13 02:30:57;;;;;;;25.85;14.18;;;15.60;99.90;;;;;;5105295;28;20049;-91
2023/10/13 02:33:30;;;;;;;32.90;14.38;;;15.60;99.90;;;;;;5113158;28;20044;-91
2023/10/13 02:35:58;;;;;;;31.98;15.10;;;15.60;99.90;;;;;;5103913;28;20082;-90
2023/10/13 02:38:34;;;;;;;28.92;15.13;;;15.60;99.90;;;;;;5098372;28;20498;-91
2023/10/13 02:41:07;;;;;;;29.88;14.32;;;15.70;99.90;;;;;;5095438;28;20036;-91
2023/10/13 02:43:37;;;;;;;27.25;13.98;;;15.60;99.90;;;;;;5096862;28;20500;-91
2023/10/13 02:46:06;;;;;;;30.45;15.65;;;15.60;99.90;;;;;;5101691;28;20043;-91
2023/10/13 02:48:45;;;;;;;30.00;15.80;;;15.40;99.90;;;;;;5095959;28;20117;-90
2023/10/13 02:51:15;;;;;;;37.58;16.63;;;15.70;99.90;;;;;;5096042;28;20042;-91
2023/10/13 02:53:46;;;;;;;32.95;16.75;;;15.70;99.90;;;;;;5107180;28;20039;-91
2023/10/13 02:56:14;;;;;;;33.17;17.90;;;15.70;99.90;;;;;;5110775;28;20118;-91
2023/10/13 02:58:45;;;;;;;37.13;17.85;;;15.70;99.90;;;;;;5095958;28;20032;-91
2023/10/13 03:01:18;;;;;;;38.60;18.77;;;15.70;99.90;;;;;;5108460;28;20036;-91
2023/10/13 03:03:54;;;;;;;31.52;17.38;;;15.70;99.90;;;;;;5115680;28;20040;-91
2023/10/13 03:06:24;;;;;;;37.42;19.35;;;15.70;99.90;;;;;;5100608;28;20085;-91
2023/10/13 03:08:52;;;;;;;40.55;19.55;;;15.80;99.90;;;;;;5095660;28;20032;-91
2023/10/13 03:11:23;;;;;;;37.05;19.35;;;15.80;99.90;;;;;;5095520;28;20046;-91
2023/10/13 03:13:52;;;;;;;37.25;19.38;;;15.80;99.90;;;;;;5095426;28;20047;-91
2023/10/13 03:16:19;;;;;;;34.00;18.35;;;15.80;99.90;;;;;;5095410;28;20135;-91
2023/10/13 03:18:56;;;;;;;37.55;19.25;;;15.80;99.90;;;;;;5095481;28;20126;-91
2023/10/13 03:21:31;;;;;;;35.90;18.88;;;15.80;99.90;;;;;;5105774;28;20514;-91
2023/10/13 03:24:04;;;;;;;35.13;18.40;;;15.80;99.90;;;;;;5110354;28;20123;-91
2023/10/13 03:26:37;;;;;;;36.85;19.05;;;15.90;99.90;;;;;;5095125;28;20043;-91
2023/10/13 03:29:08;;;;;;;39.10;19.58;;;15.90;99.90;;;;;;5111473;28;20044;-91
2023/10/13 03:31:37;;;;;;;31.80;18.55;;;15.90;99.90;;;;;;5127305;28;20563;-90
2023/10/13 03:34:09;;;;;;;35.50;18.85;;;15.80;99.90;;;;;;5106266;28;20115;-90
2023/10/13 03:39:27;;;;;;;;;;;15.90;99.90;;;;;;5132277;28;20126;-90
2023/10/13 03:41:55;;;;;;;32.33;16.38;;;15.90;99.90;;;;;;5107573;28;20343;-90
2023/10/13 03:44:22;;;;;;;34.45;18.20;;;15.90;99.90;;;;;;5124797;28;20039;-90
2023/10/13 03:46:49;;;;;;;29.75;17.55;;;15.90;99.90;;;;;;5103106;28;20062;-90
2023/10/13 03:49:21;;;;;;;29.33;16.30;;;15.90;99.90;;;;;;5105378;28;20043;-90
2023/10/13 03:51:57;;;;;;;30.88;16.23;;;15.90;99.90;;;;;;5115099;28;20043;-89
2023/10/13 03:54:24;;;;;;;31.38;16.55;;;15.90;99.90;;;;;;5106580;28;20497;-90
2023/10/13 03:56:55;;;;;;;25.00;14.73;;;15.90;99.90;;;;;;5103628;28;20123;-90
2023/10/13 03:59:22;;;;;;;29.30;15.27;;;15.90;99.90;;;;;;5111162;28;20105;-90
2023/10/13 04:01:58;;;;;;;31.58;16.10;;;15.90;99.90;;;;;;5094475;28;20040;-90
2023/10/13 04:04:34;;;;;;;29.48;15.20;;;15.90;99.90;;;;;;5094601;28;20040;-90
2023/10/13 04:12:26;;;;;;;30.77;16.15;;;15.90;99.90;;;;;;5111444;28;20071;-90
2023/10/13 04:17:40;;;;;;;29.98;15.68;;;15.90;99.90;;;;;;5116517;28;20058;-90
2023/10/13 04:26:21;;;;;;;26.40;14.32;;;15.70;99.90;;;;;;5113418;28;20100;-91
2023/10/13 04:33:35;;;;;;;26.95;12.98;;;15.90;99.90;;;;;;5111094;28;20048;-90
2023/10/13 04:38:56;;;;;;;26.70;13.30;;;15.90;99.90;;;;;;5120048;28;20043;-90
2023/10/13 04:41:31;;;;;;;23.88;12.30;;;15.90;99.90;;;;;;5101120;28;20047;-90
2023/10/13 04:44:05;;;;;;;25.88;13.05;;;15.90;99.90;;;;;;5103973;28;20050;-90
2023/10/13 04:49:29;;;;;;;25.05;13.50;;;15.90;99.90;;;;;;5116462;28;20590;-91
2023/10/13 04:57:46;;;;;;;26.45;13.35;;;15.90;99.90;;;;;;5112244;28;20040;-91
2023/10/13 06:31:02;;;;;;;10.02;4.93;;;15.60;99.90;;;;;;5074951;28;20483;-90
2023/10/13 06:33:33;;;;;;;10.10;5.43;;;15.70;99.90;;;;;;5075413;28;20111;-92
2023/10/13 06:36:03;;;;;;;9.93;5.32;;;15.60;99.90;;;;;;5055030;28;20511;-91
2023/10/13 06:38:38;;;;;;;11.17;5.60;;;15.70;99.90;;;;;;5041550;28;20044;-90
2023/10/13 06:41:07;;;;;;;9.25;5.20;;;15.70;99.90;;;;;;5071860;28;20098;-90
2023/10/13 06:43:40;;;;;;;7.78;4.72;;;15.70;99.90;;;;;;5084765;28;20059;-89
2023/10/13 06:46:14;;;;;;;8.88;4.75;;;15.70;99.90;;;;;;5068161;28;20048;-91
2023/10/13 06:49:02;;;;;;;7.57;4.78;;;15.80;99.90;;;;;;5077090;28;20040;-93
2023/10/13 06:55:34;;;;;;;10.43;5.55;;;15.80;99.90;;;;;;5100702;28;20114;-91
2023/10/13 06:58:02;;;;;;;9.07;6.10;;;15.70;99.90;;;;;;5097658;28;20040;-89
2023/10/13 07:00:40;;;;;;;8.52;5.55;;;15.80;99.90;;;;;;5107612;28;20039;-92
2023/10/13 07:03:17;;;;;;;8.60;5.47;;;15.80;99.90;;;;;;5114656;28;20035;-91
2023/10/13 07:05:50;;;;;;;9.43;4.90;;;15.80;99.90;;;;;;5094855;28;20406;-91
2023/10/13 07:08:20;;;;;;;7.68;4.88;;;15.80;99.90;;;;;;5094800;28;20130;-92
2023/10/13 07:14:16;;;;;;;8.27;4.47;;;15.80;99.90;;;;;;5096275;28;20055;-92
2023/10/13 07:16:58;;;;;;;7.78;4.28;;;15.90;99.90;;;;;;5120139;28;20048;-91
2023/10/13 07:19:29;;;;;;;6.47;4.20;;;15.90;99.90;;;;;;5103229;28;20059;-91
2023/10/13 07:22:19;;;;;;;7.70;3.85;;;16.00;99.90;;;;;;5102093;28;20486;-92
2023/10/13 07:24:50;;;;;;;8.65;3.50;;;15.90;99.90;;;;;;5097854;28;20039;-93
2023/10/13 07:27:27;;;;;;;6.50;3.33;;;16.00;99.90;;;;;;5107694;28;20036;-93
2023/10/13 07:30:13;;;;;;;6.57;3.25;;;16.10;99.90;;;;;;5109845;28;20130;-94
2023/10/13 07:32:47;;;;;;;8.60;2.80;;;16.10;99.90;;;;;;5104601;28;20122;-93
2023/10/13 07:35:25;;;;;;;7.38;3.00;;;16.10;99.90;;;;;;5107793;28;20059;-92
2023/10/13 07:37:55;;;;;;;5.85;3.08;;;16.10;99.90;;;;;;5095358;28;20040;-93
2023/10/13 07:43:09;;;;;;;6.82;2.80;;;16.20;99.90;;;;;;5113695;28;20047;-93
2023/10/13 07:45:40;;;;;;;5.75;2.78;;;16.20;99.90;;;;;;5104293;28;20040;-94
2023/10/13 07:48:20;;;;;;;4.40;2.53;;;16.20;99.90;;;;;;5100193;28;20046;-93
2023/10/13 07:50:58;;;;;;;7.15;3.05;;;16.20;99.90;;;;;;5100602;28;20447;-92
2023/10/13 07:53:28;;;;;;;6.38;2.67;;;16.10;99.90;;;;;;5095126;28;20047;-92
2023/10/13 07:55:55;;;;;;;9.48;2.92;;;16.10;99.90;;;;;;5094803;28;20054;-93
2023/10/13 07:58:26;;;;;;;8.07;3.00;;;16.20;99.90;;;;;;5104772;28;20040;-93
2023/10/13 08:03:34;;;;;;;10.07;3.50;;;16.20;99.90;;;;;;5111493;28;20079;-93
2023/10/13 08:08:49;;;;;;;10.57;3.58;;;16.10;99.90;;;;;;5119333;28;20051;-93
2023/10/13 08:14:40;;;;;;;9.50;3.40;;;16.10;99.90;;;;;;5122103;28;20054;-93
2023/10/13 08:17:04;;;;;;;6.72;3.85;;;16.10;99.90;;;;;;5100514;28;20052;-93
2023/10/13 08:19:39;;;;;;;8.40;3.58;;;16.20;99.90;;;;;;5094547;28;20047;-94
2023/10/13 08:26:29;;;;;;;11.05;3.45;;;16.10;99.90;;;;;;5110779;28;20126;-93
2023/10/13 08:31:29;;;;;;;8.48;3.70;;;16.10;99.90;;;;;;5111304;28;20131;-94
2023/10/13 08:34:15;;;;;;;8.73;3.58;;;15.80;99.90;;;;;;5101871;28;20435;-93
2023/10/13 08:36:48;;;;;;;12.73;4.30;;;16.10;99.90;;;;;;5101545;28;20075;-94
2023/10/13 08:42:15;;;;;;;10.10;3.90;;;16.10;99.90;;;;;;5122958;28;20044;-95
2023/10/13 08:45:28;;;;;;;7.65;3.88;;;16.20;99.90;;;;;;5101165;28;20504;-94
2023/10/13 08:48:31;;;;;;;16.05;4.50;;;16.20;99.90;;;;;;5128008;28;20859;-94
2023/10/13 08:51:09;;;;;;;11.27;3.80;;;16.10;99.90;;;;;;5098104;28;20090;-96
2023/10/13 08:53:58;;;;;;;11.05;4.45;;;16.10;99.90;;;;;;5097154;28;20036;-94
2023/10/13 08:56:47;;;;;;;12.25;4.47;;;16.20;99.90;;;;;;5104816;28;20048;-93
2023/10/13 08:59:52;;;;;;;;;;;;;;;;;;;;;
2023/10/13 09:06:01;;;;;;;10.23;4.75;;;16.40;99.90;;;;;;5127643;28;20484;-96
2023/10/13 09:09:04;;;;;;;11.05;4.60;;;16.60;99.90;;;;;;5033203;28;20940;-94
2023/10/13 09:15:06;;;;;;;;;;;;;;;;;;;;;
2023/10/13 09:24:27;;;;;;;15.23;5.22;;;16.80;99.90;;;;;;5020682;28;20049;-94
2023/10/13 09:27:26;;;;;;;19.20;5.70;;;16.90;99.90;;;;;;5017079;28;20112;-94
2023/10/13 09:30:01;;;;;;;14.10;5.25;;;16.90;99.90;;;;;;5017586;28;20423;-94
2023/10/13 09:33:20;;;;;;;12.77;5.15;;;17.00;99.90;;;;;;5016278;28;20054;-94
2023/10/13 09:36:25;;;;;;;7.93;4.60;;;17.20;99.90;;;;;;5023307;28;20106;-95
2023/10/13 09:39:12;;;;;;;13.45;4.57;;;17.10;99.90;;;;;;5086173;28;20510;-94
2023/10/13 09:42:03;;;;;;;11.40;5.47;;;17.30;99.90;;;;;;5090794;28;20116;-94
2023/10/13 09:45:04;;;;;;;12.60;5.65;;;17.20;99.90;;;;;;5049640;28;20111;-95
2023/10/13 09:47:52;;;;;;;16.15;5.80;;;17.50;99.90;;;;;;5015557;28;20061;-95
2023/10/13 09:50:25;;;;;;;13.82;5.88;;;17.70;99.90;;;;;;5015609;28;20050;-95
2023/10/13 09:52:53;;;;;;;13.13;5.32;;;17.40;99.90;;;;;;5016448;28;20046;-95
2023/10/13 09:55:44;;;;;;;13.52;5.63;;;17.50;99.90;;;;;;5012915;28;20074;-95
2023/10/13 09:58:47;;;;;;;13.82;5.05;;;17.50;99.90;;;;;;5003883;28;20077;-96
2023/10/13 10:01:31;;;;;;;16.48;4.97;;;17.60;99.90;;;;;;4946028;29;20284;-96
2023/10/13 10:04:23;;;;;;;14.02;4.95;;;17.90;99.90;;;;;;4963648;29;20075;-94
2023/10/13 10:07:07;;;;;;;9.77;5.07;;;17.70;99.90;;;;;;4976254;29;20036;-95
2023/10/13 10:10:01;;;;;;;11.68;5.15;;;17.80;99.90;;;;;;4985338;28;20050;-95
2023/10/13 10:12:55;;;;;;;13.73;5.68;;;18.00;99.90;;;;;;5013242;28;20108;-95
2023/10/13 10:15:52;;;;;;;11.70;4.68;;;18.00;99.90;;;;;;5026072;28;20061;-96
2023/10/13 10:18:25;;;;;;;14.70;5.10;;;18.00;99.90;;;;;;5055858;28;20041;-96
2023/10/13 10:21:15;;;;;;;13.40;4.88;;;18.00;99.90;;;;;;5056106;28;20095;-94
2023/10/13 10:23:53;;;;;;;14.52;5.30;;;18.10;99.90;;;;;;5052112;28;20696;-94
2023/10/13 10:26:40;;;;;;;13.70;5.07;;;18.20;99.90;;;;;;5036945;28;20052;-95
2023/10/13 10:29:23;;;;;;;14.48;5.90;;;18.30;99.90;;;;;;5022717;28;20136;-94
2023/10/13 10:31:52;;;;;;;13.52;5.55;;;18.30;99.90;;;;;;5035544;28;20059;-94
2023/10/13 10:34:23;;;;;;;14.18;5.35;;;18.40;99.90;;;;;;5035598;28;20053;-93
2023/10/13 10:36:57;;;;;;;13.23;4.75;;;18.40;99.90;;;;;;5034971;28;20125;-94
2023/10/13 10:39:44;;;;;;;;;;;18.40;99.90;;;;;;5063081;28;20466;-95
2023/10/13 10:42:22;;;;;;;12.23;4.28;;;18.50;99.90;;;;;;5071575;28;19974;-95
2023/10/13 10:44:55;;;;;;;11.20;4.35;;;18.60;99.90;;;;;;5068073;28;20048;-95
2023/10/13 10:47:36;;;;;;;13.48;4.47;;;18.70;99.90;;;;;;5063649;28;20478;-94
2023/10/13 10:50:26;;;;;;;12.52;4.57;;;18.80;99.90;;;;;;5059820;28;20049;-96
2023/10/13 10:53:29;;;;;;;14.32;4.55;;;18.90;99.90;;;;;;5074476;28;20033;-95
2023/10/13 10:56:25;;;;;;;10.80;4.10;;;18.80;99.90;;;;;;5116290;28;20048;-96
2023/10/13 10:59:25;;;;;;;18.73;4.70;;;18.80;99.90;;;;;;5116582;28;20100;-94
2023/10/13 11:01:58;;;;;;;13.50;4.68;;;18.50;99.90;;;;;;5103520;28;20128;-95
2023/10/13 11:04:33;;;;;;;12.75;4.40;;;18.70;99.90;;;;;;5108313;28;20098;-94
2023/10/13 11:07:06;;;;;;;18.05;4.47;;;18.80;99.90;;;;;;5123560;28;20397;-95
2023/10/13 11:12:26;;;;;;;14.57;4.65;;;18.90;99.90;;;;;;5122386;28;20046;-96
2023/10/13 11:15:44;;;;;;;11.65;4.30;;;18.90;99.90;;;;;;5113053;28;20567;-95
2023/10/13 11:18:40;;;;;;;10.77;4.15;;;19.30;99.90;;;;;;5125678;28;20083;-95
2023/10/13 11:21:24;;;;;;;16.52;4.65;;;19.10;99.90;;;;;;5104644;28;20103;-96
2023/10/13 11:24:11;;;;;;;16.52;4.97;;;19.20;99.90;;;;;;5105709;28;20040;-95
2023/10/13 11:26:57;;;;;;;9.88;4.10;;;19.30;99.90;;;;;;5092145;28;20048;-95
2023/10/13 11:29:39;;;;;;;;;;;19.40;99.90;;;;;;5093378;28;20037;-94
2023/10/13 11:32:11;;;;;;;10.85;4.45;;;19.30;99.90;;;;;;5091615;28;20395;-94
2023/10/13 11:34:43;;;;;;;12.43;3.70;;;19.40;99.90;;;;;;5091311;28;20048;-96
2023/10/13 11:40:43;;;;;;;15.70;4.57;;;19.30;99.90;;;;;;5108455;28;20044;-95
2023/10/13 11:43:21;;;;;;;16.25;4.68;;;19.30;99.90;;;;;;5104932;28;20375;-95
2023/10/13 11:46:12;;;;;;;16.85;5.00;;;19.30;99.90;;;;;;5091736;28;20047;-94
2023/10/13 11:52:15;;;;;;;16.60;4.65;;;19.30;99.90;;;;;;5103446;28;20447;-92
2023/10/13 11:54:52;;;;;;;;;;;;;;;;;;;;;
2023/10/13 11:57:21;;;;;;;13.60;4.55;;;19.30;99.90;;;;;;5107404;28;20048;-93
2023/10/13 11:59:56;;;;;;;15.07;4.82;;;19.30;99.90;;;;;;5091370;28;20044;-93
2023/10/13 12:04:57;;;;;;;12.75;3.88;;;19.30;99.90;;;;;;5114859;28;20052;-94
2023/10/13 12:07:51;;;;;;;15.40;4.70;;;19.30;99.90;;;;;;5101537;28;20040;-94
2023/10/13 12:10:33;;;;;;;15.75;4.32;;;19.30;99.90;;;;;;5091451;28;20082;-94
2023/10/13 12:13:08;;;;;;;12.13;4.07;;;19.30;99.90;;;;;;5090838;28;20037;-94
2023/10/13 12:15:48;;;;;;;10.95;4.47;;;19.40;99.90;;;;;;5098860;28;20561;-94
2023/10/13 12:18:23;;;;;;;13.30;4.15;;;19.40;99.90;;;;;;5103652;28;20044;-95
2023/10/13 12:20:53;;;;;;;16.08;4.43;;;19.40;99.90;;;;;;5091687;28;20127;-93
2023/10/13 12:23:29;;;;;;;18.88;4.97;;;19.50;99.90;;;;;;5091770;28;20075;-94
2023/10/13 12:26:00;;;;;;;11.95;4.82;;;19.40;99.90;;;;;;5095893;28;20094;-94
2023/10/13 12:28:40;;;;;;;15.85;4.80;;;19.40;99.90;;;;;;5102515;28;20048;-93
2023/10/13 12:31:15;;;;;;;15.13;5.07;;;19.40;99.90;;;;;;5090979;28;20036;-95
2023/10/13 12:38:36;;;;;;;15.05;4.72;;;19.30;99.90;;;;;;5108427;28;20051;-94
2023/10/13 12:50:43;;;;;;;12.63;5.22;;;19.00;99.90;;;;;;5107975;28;20044;-95
2023/10/13 12:53:14;;;;;;;15.73;5.25;;;19.00;99.90;;;;;;5098117;28;20040;-95
2023/10/13 12:55:41;;;;;;;13.88;5.65;;;18.80;99.90;;;;;;5096876;28;20079;-93
2023/10/13 12:58:10;;;;;;;13.18;5.60;;;19.00;99.90;;;;;;5102831;28;20487;-96
2023/10/13 13:23:19;;;;;;;19.90;5.43;;;19.00;99.90;;;;;;5098039;28;20053;-95
2023/10/13 13:25:46;;;;;;;19.67;5.68;;;19.10;99.90;;;;;;5077695;28;20095;-93
2023/10/13 13:28:19;;;;;;;12.73;5.45;;;18.90;99.90;;;;;;5088441;28;20052;-96
2023/10/13 13:30:58;;;;;;;14.60;5.95;;;18.90;99.90;;;;;;5080271;28;20124;-94
2023/10/13 13:33:47;;;;;;;17.13;5.72;;;18.80;99.90;;;;;;5078312;28;20079;-96
2023/10/13 13:36:15;;;;;;;16.58;6.28;;;18.80;99.90;;;;;;5075376;28;20285;-95
2023/10/13 13:39:32;;;;;;;12.25;5.22;;;18.80;99.90;;;;;;5086610;28;20048;-95
2023/10/13 13:44:58;;;;;;;15.32;5.40;;;18.60;99.90;;;;;;5193951;23;20418;-95
2023/10/13 14:07:17;;;;;;;15.60;5.95;;;18.50;99.90;;;;;;5558595;22;20053;-94
2023/10/13 14:09:51;;;;;;;16.10;5.60;;;18.40;99.90;;;;;;5021040;28;20042;-93
2023/10/13 14:12:29;;;;;;;13.85;5.60;;;18.40;99.90;;;;;;5018140;28;20046;-92
2023/10/13 14:17:49;;;;;;;16.02;5.65;;;18.30;99.90;;;;;;5062585;28;20046;-93
2023/10/13 14:20:21;;;;;;;15.38;5.60;;;18.30;99.90;;;;;;5032107;28;20824;-92
2023/10/13 14:22:59;;;;;;;13.90;6.03;;;18.20;99.90;;;;;;5027852;28;20460;-92
2023/10/13 14:25:37;;;;;;;14.20;5.15;;;18.20;99.90;;;;;;5072325;28;20076;-92
2023/10/13 15:28:09;;;;;;;20.15;6.72;;;18.20;99.90;;;;;;725478;22;21642;31
2023/10/13 15:30:44;;;;;;;22.17;7.00;;;18.10;99.90;;;;;;4986591;28;20054;-91
2023/10/13 15:33:12;;;;;;;17.43;7.20;;;18.00;99.90;;;;;;4990705;28;20081;-91
2023/10/13 15:35:42;;;;;;;18.95;7.47;;;17.90;99.90;;;;;;5000523;28;20040;-92
2023/10/13 15:38:13;;;;;;;15.05;6.18;;;17.90;99.90;;;;;;4991788;28;20039;-92
2023/10/13 15:40:45;;;;;;;16.10;7.40;;;17.80;99.90;;;;;;4989910;29;20035;-92
2023/10/13 15:43:12;;;;;;;17.70;6.53;;;17.70;99.90;;;;;;5002136;28;20065;-92
2023/10/13 15:45:39;;;;;;;18.27;6.82;;;17.70;99.90;;;;;;5007145;28;20587;-85
2023/10/13 15:48:11;;;;;;;21.65;7.38;;;17.70;99.90;;;;;;5005220;28;20091;-91
2023/10/13 15:50:39;;;;;;;18.35;7.07;;;17.60;99.90;;;;;;4995839;28;20057;-92
2023/10/13 15:53:07;;;;;;;17.05;6.90;;;17.60;99.90;;;;;;5008441;28;20050;-92
2023/10/13 15:55:45;;;;;;;16.02;7.38;;;17.60;99.90;;;;;;4992158;28;20038;-92
2023/10/13 16:01:57;;;;;;;17.75;8.15;;;17.30;99.90;;;;;;4949718;29;20395;-93
2023/10/13 16:04:26;;;;;;;15.45;7.75;;;17.50;99.90;;;;;;4918232;29;20044;-93
2023/10/13 16:06:53;;;;;;;15.88;7.32;;;17.50;99.90;;;;;;4933665;29;20062;-93
2023/10/13 16:09:23;;;;;;;17.75;8.35;;;17.40;99.90;;;;;;4917678;29;20052;-93
2023/10/13 16:12:01;;;;;;;15.25;7.15;;;17.50;99.90;;;;;;4913604;29;20135;-92
2023/10/13 16:14:31;;;;;;;15.90;7.55;;;17.50;99.90;;;;;;4918387;29;20040;-93
2023/10/13 16:17:12;;;;;;;19.88;7.22;;;17.40;99.90;;;;;;4917855;29;20079;-94
2023/10/13 16:19:53;;;;;;;14.93;6.57;;;17.20;99.90;;;;;;4918319;29;20048;-94
2023/10/13 16:22:20;;;;;;;16.10;6.97;;;17.50;99.90;;;;;;4933542;29;20123;-95
2023/10/13 16:24:51;;;;;;;14.75;7.00;;;17.50;99.90;;;;;;4917826;29;20119;-95
2023/10/13 16:27:19;;;;;;;17.45;7.75;;;17.50;99.90;;;;;;4917569;29;20039;-93
2023/10/13 16:30:15;;;;;;;20.77;6.30;;;17.50;99.90;;;;;;4933517;29;20087;-96
2023/10/13 16:32:45;;;;;;;16.08;5.97;;;17.40;99.90;;;;;;4967106;29;20062;-94
2023/10/13 16:35:16;;;;;;;17.17;6.07;;;17.50;99.90;;;;;;4932697;29;20063;-95
2023/10/13 16:37:50;;;;;;;14.82;5.50;;;17.40;99.90;;;;;;4946349;28;20106;-94
2023/10/13 16:40:18;;;;;;;14.13;5.50;;;17.40;99.90;;;;;;4991684;28;20081;-93
2023/10/13 16:42:52;;;;;;;13.98;5.32;;;17.40;99.90;;;;;;5024037;28;20556;-95
2023/10/13 16:45:31;;;;;;;8.53;4.70;;;17.40;99.90;;;;;;4981912;28;20121;-93
2023/10/13 16:51:32;;;;;;;10.20;4.28;;;17.40;99.90;;;;;;4980511;28;20046;-96
2023/10/13 16:54:38;;;;;;;12.43;4.07;;;17.40;99.90;;;;;;5010572;28;20039;-96
2023/10/13 16:57:06;;;;;;;;;;;17.40;99.90;;;;;;5025390;28;20056;-94
2023/10/13 16:59:33;;;;;;;9.00;3.83;;;17.40;99.90;;;;;;5017938;28;19918;-92
2023/10/13 17:02:05;;;;;;;12.05;3.70;;;17.30;99.90;;;;;;5008442;28;20054;-94
2023/10/13 17:04:35;;;;;;;9.50;3.92;;;17.30;99.90;;;;;;5012775;28;20039;-94
2023/10/13 17:07:07;;;;;;;11.05;3.13;;;17.40;99.90;;;;;;5012852;28;20061;-93
2023/10/13 17:09:34;;;;;;;12.38;3.90;;;17.40;99.90;;;;;;5016110;28;20046;-93
2023/10/13 17:12:13;;;;;;;10.82;3.55;;;17.40;99.90;;;;;;5003533;28;20378;-95
2023/10/13 17:14:40;;;;;;;8.35;3.80;;;17.40;99.90;;;;;;5015558;28;20629;-95
2023/10/13 17:17:08;;;;;;;9.48;3.60;;;17.40;99.90;;;;;;5000839;28;20042;-93
2023/10/13 17:19:35;;;;;;;12.32;4.40;;;17.50;99.90;;;;;;5016673;28;20512;-94
2023/10/13 17:22:03;;;;;;;12.15;5.20;;;17.50;99.90;;;;;;5002687;28;20035;-93
2023/10/13 17:24:40;;;;;;;10.70;4.65;;;17.50;99.90;;;;;;5016454;28;20038;-94
2023/10/13 17:27:13;;;;;;;15.15;5.15;;;17.50;99.90;;;;;;5031320;28;20054;-94
2023/10/13 17:29:42;;;;;;;12.95;5.28;;;17.50;99.90;;;;;;5011193;28;20082;-93
2023/10/13 17:32:22;;;;;;;15.25;5.38;;;17.50;99.90;;;;;;4999322;28;20089;-94
2023/10/13 17:34:56;;;;;;;12.68;5.32;;;17.50;99.90;;;;;;5013962;28;20041;-95
2023/10/13 17:37:25;;;;;;;15.55;6.22;;;17.60;99.90;;;;;;5021672;28;20056;-92
2023/10/13 17:40:00;;;;;;;16.08;6.38;;;17.60;99.90;;;;;;5015578;28;20836;-93
2023/10/13 17:42:28;;;;;;;13.65;5.78;;;17.60;99.90;;;;;;5015837;28;20054;-93
2023/10/13 17:44:59;;;;;;;15.80;5.60;;;17.60;99.90;;;;;;4997149;28;20046;-94
2023/10/13 17:47:33;;;;;;;15.05;5.68;;;17.60;99.90;;;;;;5040548;28;20046;-95
2023/10/13 17:50:00;;;;;;;16.05;5.72;;;17.60;99.90;;;;;;5014140;28;20038;-92
2023/10/13 17:52:27;;;;;;;14.68;5.72;;;17.60;99.90;;;;;;4998349;28;20077;-94
2023/10/13 17:55:20;;;;;;;14.80;5.72;;;17.50;99.90;;;;;;4995455;28;20034;-95
2023/10/13 17:58:08;;;;;;;;;;;;;;;;;;;;;
2023/10/13 18:00:45;;;;;;;10.25;4.82;;;17.60;99.90;;;;;;5032734;28;20818;-96
2023/10/13 18:03:15;;;;;;;14.75;5.35;;;17.60;99.90;;;;;;4998701;28;20053;-96
2023/10/13 18:05:47;;;;;;;18.63;5.10;;;17.70;99.90;;;;;;4998978;28;20730;-95
2023/10/13 18:08:48;;;;;;;15.43;4.97;;;17.70;99.90;;;;;;5014490;28;20177;-96
2023/10/13 18:11:34;;;;;;;9.00;4.40;;;17.70;99.90;;;;;;5012185;28;20046;-95
2023/10/13 18:14:20;;;;;;;14.50;5.40;;;17.80;99.90;;;;;;4991697;28;20078;-95
2023/10/13 18:17:15;;;;;;;13.80;4.85;;;17.80;99.90;;;;;;5024498;28;20046;-96
2023/10/13 18:19:50;;;;;;;10.82;4.50;;;18.00;99.90;;;;;;5012075;28;20042;-94
2023/10/13 18:22:24;;;;;;;12.60;4.32;;;18.00;99.90;;;;;;5001932;28;20366;-95
2023/10/13 18:25:11;;;;;;;12.52;4.68;;;18.00;99.90;;;;;;5012788;28;20077;-95
2023/10/13 18:28:11;;;;;;;;;;;;;;;;;;;;;
2023/10/13 18:31:32;;;;;;;12.82;5.20;;;18.00;99.90;;;;;;4998431;28;20700;-95
2023/10/13 18:34:36;;;;;;;;;;;;;;;;;;;;;
2023/10/13 18:37:09;;;;;;;15.30;4.93;;;18.00;99.90;;;;;;5017745;28;20042;-91
2023/10/13 18:39:36;;;;;;;11.98;5.60;;;17.90;99.90;;;;;;5034074;28;20030;-90